TimeIST,TemperatureF,Dew PointF,Humidity,Sea Level PressureIn,VisibilityMPH,Wind Direction,Wind SpeedMPH,Gust SpeedMPH,PrecipitationIn,Events,Conditions,WindDirDegrees,DateUTC
12:00 AM,66.2,51.8,60,29.95,1.2,Calm,Calm,-,N/A,,Smoke,0,2012-11-03 18:30:00
1:00 AM,62.6,51.8,68,29.95,1.2,Calm,Calm,-,N/A,,Smoke,0,2012-11-03 19:30:00
2:00 AM,62.6,51.8,68,29.92,1.2,Calm,Calm,-,N/A,,Smoke,0,2012-11-03 20:30:00
2:30 AM,62,50,55,29.90,1,Calm,Calm,,,,Smoke,,2012-11-03 21:00:00
3:00 AM,62.6,50.0,63,29.92,1.2,Calm,Calm,-,N/A,,Smoke,0,2012-11-03 21:30:00
4:00 AM,62.6,50.0,63,29.92,1.2,Calm,Calm,-,N/A,,Smoke,0,2012-11-03 22:30:00
5:00 AM,60.8,50.0,68,29.92,1.2,Calm,Calm,-,N/A,,Smoke,0,2012-11-03 23:30:00
5:30 AM,62,51,57,29.91,1,Calm,Calm,,,,Smoke,,2012-11-04 00:00:00
7:00 AM,60.8,50.0,68,29.95,0.6,Calm,Calm,-,N/A,,Smoke,0,2012-11-04 01:30:00
8:00 AM,64.4,51.8,64,29.98,0.6,Calm,Calm,-,N/A,,Smoke,0,2012-11-04 02:30:00
8:30 AM,68,59,66,29.95,1,Calm,Calm,,,,Smoke,,2012-11-04 03:00:00
9:00 AM,75.2,57.2,53,30.01,0.6,Calm,Calm,-,N/A,,Smoke,0,2012-11-04 03:30:00
10:00 AM,77.0,57.2,50,30.01,0.6,Variable,2.3,-,N/A,,Smoke,0,2012-11-04 04:30:00
11:00 AM,80.6,57.2,45,30.01,0.9,Variable,3.5,-,N/A,,Smoke,0,2012-11-04 05:30:00
11:30 AM,81,53,27,29.91,1,Calm,Calm,,,,Smoke,,2012-11-04 06:00:00
1:00 PM,82.4,53.6,37,29.95,1.2,Calm,Calm,-,N/A,,Smoke,0,2012-11-04 07:30:00
2:00 PM,82.4,53.6,37,29.89,1.2,Calm,Calm,-,N/A,,Smoke,0,2012-11-04 08:30:00
2:30 PM,83,50,22,29.83,1,Calm,Calm,,,,Smoke,,2012-11-04 09:00:00
2:30 PM,82.4,51.8,35,29.89,1.2,Variable,2.3,-,N/A,,Smoke,0,2012-11-04 09:00:00
3:00 PM,82.4,51.8,35,29.89,1.2,Variable,1.2,-,N/A,,Smoke,0,2012-11-04 09:30:00
3:30 PM,82.4,51.8,35,29.89,1.2,Calm,Calm,-,N/A,,Smoke,0,2012-11-04 10:00:00
4:00 PM,82.4,51.8,35,29.89,1.2,Calm,Calm,-,N/A,,Smoke,0,2012-11-04 10:30:00
4:30 PM,82.4,51.8,35,29.89,1.2,Calm,Calm,-,N/A,,Smoke,0,2012-11-04 11:00:00
5:00 PM,80.6,51.8,37,29.89,1.2,Calm,Calm,-,N/A,,Smoke,0,2012-11-04 11:30:00
5:30 PM,80,52,28,29.82,1,Calm,Calm,,,,Smoke,,2012-11-04 12:00:00
6:00 PM,75.2,51.8,44,29.89,1.2,Calm,Calm,-,N/A,,Smoke,0,2012-11-04 12:30:00
7:00 PM,73.4,51.8,47,29.89,1.2,Calm,Calm,-,N/A,,Smoke,0,2012-11-04 13:30:00
8:00 PM,69.8,53.6,56,29.92,0.9,Calm,Calm,-,N/A,,Smoke,0,2012-11-04 14:30:00
8:30 PM,71,51,38,29.86,1,Calm,Calm,,,,Smoke,,2012-11-04 15:00:00
8:30 PM,69.8,53.6,56,29.92,0.7,Calm,Calm,-,N/A,,Smoke,0,2012-11-04 15:00:00
9:00 PM,68.0,53.6,60,29.92,0.7,Calm,Calm,-,N/A,,Smoke,0,2012-11-04 15:30:00
10:00 PM,66.2,53.6,64,29.92,0.7,Calm,Calm,-,N/A,,Smoke,0,2012-11-04 16:30:00
11:00 PM,64.4,53.6,68,29.92,0.7,Calm,Calm,-,N/A,,Smoke,0,2012-11-04 17:30:00
11:30 PM,66,54,55,29.88,1,Calm,Calm,,,,Smoke,,2012-11-04 18:00:00